Terminal Aerodrome Forecast
Issued by NWS

Home | Current Version | Previous Version | Text Only | Print | Product List | Glossary On
Versions: 1 2 3 4 5 6 7 8 9 10 11 12 13 14 15 16 17 18 19 20 21 22 23 24 25 26 27 28 29 30 31 32 33 34 35 36 37 38 39 40 41
000
FTUS46 KOTX 250726 AAA
TAFCOE
TAF AMD
KCOE 250726Z 2507/2606 00000KT 4SM BR OVC015
     FM251200 VRB02KT 1SM BR OVC008
     FM252100 24006KT 3SM BR BKN004 OVC012
     FM252300 04004KT P6SM SCT004 SCT012
     FM260500 05008KT 6SM BR SCT001
      AMD LTD TO CLD AND VIS=

USA.gov is the U.S. government's official web portal to all federal, state and local government web resources and services.